»·PEaware :: N213DS KSMO-KSBA

N213DS :: KSMO-KSBA

FLIGHT INFORMATION

Flight Status: Arrived
Operator: Privately registered:
United States
More flights under this callsign
Pilot: Robert D. (13877)
Aircraft: Unknown
(DA40)
More flights by this aircraft type
Origin: KSMO Santa Monica Mun
United States
Destination: KSBA Santa Barbara Mun
United States
More flights between these airports :: More routes between these airports
Route: SMO V107 SADDE V299 VTU VTU282 KWANG
File this flight plan on PilotEdge
Remarks:
Altitude:
(Current/Filed)
6,000ft
Speed:
(Current/Filed)
125kts
Departed: 25-Jul-20 05:40 PM
Arrived: 25-Jul-20 06:24 PM
Distance/Time
Traveled:
73nm/0:43
Distance/Time
To Go:
Arrived

Flight Plot

Page will automatically refresh every two minutes.


Map Options




Map Legend


Flown Route
Filed Route
Departure Airport
Arrival Airport
Navaid (VOR, NDB)
Fix

Horizontal Profiles

Position Reports

Time Latitude Longitude Heading Altitude Ground
Speed
25-Jul-20 17:07 34.016610 -118.448929 214 146ft 0kts
25-Jul-20 17:08 34.016610 -118.448929 214 146ft 0kts
25-Jul-20 17:09 34.016610 -118.448929 214 146ft 0kts
25-Jul-20 17:10 34.016610 -118.448929 214 146ft 0kts
25-Jul-20 17:11 34.016610 -118.448929 214 146ft 0kts
25-Jul-20 17:12 34.016610 -118.448929 214 146ft 0kts
25-Jul-20 17:13 34.016609 -118.448930 215 146ft 0kts
25-Jul-20 17:14 34.016609 -118.448930 215 146ft 0kts
25-Jul-20 17:15 34.016609 -118.448930 215 146ft 0kts
25-Jul-20 17:16 34.016609 -118.448930 215 146ft 0kts
25-Jul-20 17:17 34.016609 -118.448930 215 146ft 0kts
25-Jul-20 17:18 34.016609 -118.448930 215 146ft 0kts
25-Jul-20 17:19 34.016609 -118.448930 215 146ft 0kts
25-Jul-20 17:20 34.016609 -118.448930 215 146ft 0kts
25-Jul-20 17:21 34.016609 -118.448930 215 146ft 0kts
25-Jul-20 17:22 34.016609 -118.448930 215 146ft 0kts
25-Jul-20 17:23 34.016609 -118.448930 215 146ft 0kts
25-Jul-20 17:24 34.016609 -118.448930 215 146ft 0kts
25-Jul-20 17:25 34.016609 -118.448930 215 146ft 0kts
25-Jul-20 17:26 34.016609 -118.448930 215 146ft 0kts
25-Jul-20 17:27 34.016609 -118.448930 215 146ft 0kts
25-Jul-20 17:28 34.016609 -118.448930 215 146ft 0kts
25-Jul-20 17:29 34.016609 -118.448930 215 146ft 0kts
25-Jul-20 17:30 34.016609 -118.448930 215 146ft 0kts
25-Jul-20 17:31 34.016609 -118.448930 215 146ft 0kts
25-Jul-20 17:32 34.016609 -118.448930 215 146ft 0kts
25-Jul-20 17:33 34.016609 -118.448930 215 146ft 0kts
25-Jul-20 17:34 34.016528 -118.449205 341 145ft 0kts
25-Jul-20 17:35 34.018829 -118.446609 45 159ft 33kts
25-Jul-20 17:36 34.018987 -118.446426 232 159ft 3kts
25-Jul-20 17:37 34.018876 -118.446805 297 159ft 0kts
25-Jul-20 17:38 34.018876 -118.446805 297 159ft 0kts
25-Jul-20 17:39 34.014303 -118.453384 228 329ft 65kts
25-Jul-20 17:40 34.000927 -118.473508 236 1445ft 80kts
25-Jul-20 17:41 33.995847 -118.499700 263 2471ft 94kts
25-Jul-20 17:42 33.994336 -118.533452 262 3167ft 104kts
25-Jul-20 17:43 33.992803 -118.568542 262 3852ft 105kts
25-Jul-20 17:44 33.991575 -118.603799 262 4535ft 105kts
25-Jul-20 17:45 33.990594 -118.639188 262 5221ft 105kts
25-Jul-20 17:46 34.000811 -118.673336 281 5907ft 110kts
25-Jul-20 17:47 34.012004 -118.711926 285 6014ft 130kts
25-Jul-20 17:48 34.024287 -118.752181 285 6013ft 126kts
25-Jul-20 17:49 34.036539 -118.791989 285 6014ft 126kts
25-Jul-20 17:50 34.048728 -118.831621 285 6015ft 126kts
25-Jul-20 17:52 34.061000 -118.871564 285 6017ft 127kts
25-Jul-20 17:53 34.073287 -118.911619 285 6018ft 127kts
25-Jul-20 17:54 34.085625 -118.951901 285 6019ft 128kts
25-Jul-20 17:55 34.097932 -118.992083 295 6023ft 123kts
25-Jul-20 17:56 34.109345 -119.029625 295 6023ft 117kts
25-Jul-20 17:57 34.122249 -119.065473 301 6023ft 115kts
25-Jul-20 17:58 34.136700 -119.100028 301 6021ft 115kts
25-Jul-20 17:59 34.150957 -119.133961 301 6020ft 115kts
25-Jul-20 18:00 34.165220 -119.168003 302 6019ft 114kts
25-Jul-20 18:01 34.179677 -119.202511 302 6018ft 115kts
25-Jul-20 18:02 34.194702 -119.238125 301 6017ft 120kts
25-Jul-20 18:03 34.208831 -119.272881 302 5560ft 111kts
25-Jul-20 18:04 34.222766 -119.306071 302 5013ft 113kts
25-Jul-20 18:05 34.236939 -119.340267 301 4322ft 113kts
25-Jul-20 18:06 34.250237 -119.372735 301 4003ft 96kts
25-Jul-20 18:06 34.260009 -119.395977 300 4007ft 91kts
25-Jul-20 18:08 34.273537 -119.427931 302 4006ft 94kts
25-Jul-20 18:09 34.285601 -119.456857 300 4006ft 97kts
25-Jul-20 18:09 34.295753 -119.481447 300 4005ft 98kts
25-Jul-20 18:11 34.310040 -119.516179 300 3987ft 99kts
25-Jul-20 18:11 34.320521 -119.543706 298 3318ft 112kts
25-Jul-20 18:13 34.335270 -119.581558 295 2272ft 106kts
25-Jul-20 18:13 34.345559 -119.608333 295 2103ft 100kts
25-Jul-20 18:14 34.357262 -119.638309 295 2104ft 98kts
25-Jul-20 18:15 34.368834 -119.668273 294 2107ft 98kts
25-Jul-20 18:16 34.380498 -119.698454 294 2107ft 99kts
25-Jul-20 18:17 34.390854 -119.725969 293 1986ft 68kts
25-Jul-20 18:18 34.398428 -119.745709 292 1609ft 62kts
25-Jul-20 18:19 34.405877 -119.765604 292 1259ft 66kts
25-Jul-20 18:20 34.413523 -119.785923 291 894ft 66kts
25-Jul-20 18:21 34.421180 -119.806403 291 534ft 67kts
25-Jul-20 18:22 34.427800 -119.826995 275 196ft 59kts
25-Jul-20 18:23 34.428386 -119.838823 319 13ft 8kts
25-Jul-20 18:24 34.431138 -119.839415 353 13ft 0kts
25-Jul-20 18:25 34.431138 -119.839415 353 13ft 0kts

Navigation Log

Ident Type
Flight plan parsing failed, navigation log unavailable